map of BQS home
BQS - Airport
Location
City:  Blagoveshchensk, Amurskaya, Russian Federation (Russia)
Name:Ignatyevo Airport
ICAO:UHBB
IATA:BQS

Details
Type:Airport (Aerodrome, Airfield)
Use:Public/Civil, International (customs port of entry)
Latitude:5025'32"N (50.425556)
Longitude:12724'45"E (127.412500)
Elevation:640 ft (195 m)
Variation:12.22W (WMM2015 magnetic declination)
-0.04 annual change
Runways:1
Longest:9186 × 148 ft (2800 × 45 m), paved

Time
Time Zone:UTC+9 (DST+10)

Weather
METAR:UHBB 090900Z 24002MPS CAVOK M18/M23 Q1020 R36/090060 NOSIG RMK QFE747/0996
TAF:UHBB 090745Z 0909/1009 25003MPS CAVOK= TAF UHSS 090800Z 0909/1015 02003MPS 9999 BKN020CB
TEMPO 0912/1015 1400 SHSN BKN005 BKN017CB
BECMG 1000/1002 36007G12MPS

Related Locations
Nearby:
Farthest:PSY: 12195 mi / 19626 km
Stanley (Port Stanley) [Port Stanley], FK

Find:

   beyond  
but within

Other Information
Maps:
NOTAMs:
Links:
Sources:

  
flag of Russian Federation (Russia)
flag of Amurskaya
  

Airport Diagram

Airport diagram for BQS

Airport diagram PDF from AIP of the Russian Federation

Sectional Chart

Flight Planning
at skyvector.com

Satellite Image

Google Maps Satellite view

Yandex Maps Satellite view


 

Copyright © 2004-2016 Karl L. Swartz. All rights reserved.
The Great Circle Mapper name and logo are trademarks of the Great Circle Mapper.
All other trademarks mentioned herein belong to their respective owners.
Please see credits for attibutions and further copyright information.

  Follow gcmap on Facebook Follow gcmap on Twitter Follow gcmap on Google+ GCmap on LinkedIn

hCard Microformat

Geo Microformat